Time;durP1;ratioP1;P1;durP2;ratioP2;P2;SDS_P1;SDS_P2;PMS_P1;PMS_P2;Temp;Humidity;BMP_temperature;BMP_pressure;BME280_temperature;BME280_humidity;BME280_pressure;Samples;Min_cycle;Max_cycle;Signal;HPM_P1;HPM_P2
2023/02/19 00:01:22;;;;;;;52.03;47.53;;;;;;;;;;5057107;28;20099;-59
2023/02/19 00:03:50;;;;;;;51.47;46.97;;;;;;;;;;5080443;23;20097;-62
2023/02/19 00:06:17;;;;;;;54.35;49.38;;;;;;;;;;5091365;28;20091;-64
2023/02/19 00:08:43;;;;;;;53.33;48.83;;;;;;;;;;5091209;28;20024;-65
2023/02/19 00:11:11;;;;;;;53.63;48.78;;;;;;;;;;5091054;28;20024;-64
2023/02/19 00:13:37;;;;;;;55.72;51.10;;;;;;;;;;5090253;28;20035;-64
2023/02/19 00:16:07;;;;;;;56.67;51.33;;;;;;;;;;5072843;28;20035;-63
2023/02/19 00:18:33;;;;;;;59.05;53.80;;;;;;;;;;5091047;28;20040;-63
2023/02/19 00:20:59;;;;;;;56.80;51.80;;;;;;;;;;5091157;28;20070;-65
2023/02/19 00:23:25;;;;;;;60.85;55.60;;;;;;;;;;5090526;28;20488;-65
2023/02/19 00:25:51;;;;;;;61.28;55.53;;;;;;;;;;5091497;28;20016;-62
2023/02/19 00:28:17;;;;;;;67.25;61.13;;;;;;;;;;5091400;28;20415;-64
2023/02/19 00:30:43;;;;;;;63.28;57.15;;;;;;;;;;5091446;28;20070;-65
2023/02/19 00:33:09;;;;;;;66.32;59.95;;;;;;;;;;5072365;28;20078;-63
2023/02/19 00:35:36;;;;;;;64.25;57.90;;;;;;;;;;5073147;28;20138;-64
2023/02/19 00:38:02;;;;;;;49.30;45.92;;;;;;;;;;5091341;28;20028;-64
2023/02/19 00:40:28;;;;;;;44.30;41.40;;;;;;;;;;5072801;28;20032;-64
2023/02/19 00:42:54;;;;;;;46.30;43.30;;;;;;;;;;5072736;28;20024;-63
2023/02/19 00:45:20;;;;;;;48.67;45.67;;;;;;;;;;5090490;28;20054;-62
2023/02/19 00:47:46;;;;;;;46.28;43.38;;;;;;;;;;5091027;28;20042;-64
2023/02/19 00:50:12;;;;;;;52.05;48.65;;;;;;;;;;5073096;28;20047;-66
2023/02/19 00:52:38;;;;;;;49.55;46.45;;;;;;;;;;5091105;28;20149;-66
2023/02/19 00:55:04;;;;;;;48.70;45.63;;;;;;;;;;5090436;28;20078;-64
2023/02/19 00:57:30;;;;;;;50.70;47.30;;;;;;;;;;5090869;28;20074;-65
2023/02/19 00:59:56;;;;;;;52.33;48.22;;;;;;;;;;5090962;28;20028;-64
2023/02/19 01:02:22;;;;;;;46.88;43.97;;;;;;;;;;5090443;28;20438;-62
2023/02/19 01:04:48;;;;;;;44.83;41.92;;;;;;;;;;5090281;28;20039;-63
2023/02/19 01:07:14;;;;;;;44.78;41.88;;;;;;;;;;5090858;28;20024;-64
2023/02/19 01:09:40;;;;;;;43.80;41.00;;;;;;;;;;5090775;28;20014;-64
2023/02/19 01:12:06;;;;;;;47.83;44.83;;;;;;;;;;5072665;28;20368;-64
2023/02/19 01:14:32;;;;;;;47.50;44.50;;;;;;;;;;5090092;28;20028;-63
2023/02/19 01:16:58;;;;;;;45.10;42.20;;;;;;;;;;5090739;28;20380;-64
2023/02/19 01:19:25;;;;;;;47.80;44.38;;;;;;;;;;5090556;28;20044;-65
2023/02/19 01:21:51;;;;;;;45.53;42.63;;;;;;;;;;5090461;28;20115;-66
2023/02/19 01:24:17;;;;;;;46.42;43.53;;;;;;;;;;5089499;28;20418;-65
2023/02/19 01:26:43;;;;;;;46.15;43.25;;;;;;;;;;5072644;28;20024;-63
2023/02/19 01:29:09;;;;;;;46.47;43.47;;;;;;;;;;5090509;28;20681;-66
2023/02/19 01:31:35;;;;;;;46.05;43.15;;;;;;;;;;5090530;28;20103;-65
2023/02/19 01:34:02;;;;;;;43.50;40.70;;;;;;;;;;5089753;28;20024;-64
2023/02/19 01:36:30;;;;;;;44.15;41.35;;;;;;;;;;5090651;28;20032;-65
2023/02/19 01:38:56;;;;;;;44.38;41.47;;;;;;;;;;5072281;28;20031;-66
2023/02/19 01:41:23;;;;;;;43.42;40.53;;;;;;;;;;5072475;28;20115;-66
2023/02/19 01:44:03;;;;;;;43.90;41.00;;;;;;;;;;5089404;28;20476;-65
2023/02/19 01:46:31;;;;;;;43.78;40.75;;;;;;;;;;5090386;28;20392;-65
2023/02/19 01:48:58;;;;;;;41.05;38.35;;;;;;;;;;5090403;28;20402;-66
2023/02/19 01:51:24;;;;;;;44.55;41.33;;;;;;;;;;5090783;28;20024;-64
2023/02/19 01:53:52;;;;;;;42.22;39.42;;;;;;;;;;5073229;28;20020;-65
2023/02/19 01:56:19;;;;;;;41.88;39.17;;;;;;;;;;5076288;28;20028;-65
2023/02/19 01:58:45;;;;;;;41.72;39.03;;;;;;;;;;5094191;28;20023;-65
2023/02/19 02:01:12;;;;;;;48.22;44.88;;;;;;;;;;5094405;28;20028;-66
2023/02/19 02:03:39;;;;;;;52.60;45.80;;;;;;;;;;5093315;28;20435;-64
2023/02/19 02:06:05;;;;;;;43.88;41.08;;;;;;;;;;5075657;28;20081;-62
2023/02/19 02:11:17;;;;;;;49.38;46.22;;;;;;;;;;5094257;28;20059;-64
2023/02/19 02:13:43;;;;;;;45.33;42.42;;;;;;;;;;5074806;28;20028;-65
2023/02/19 02:16:28;;;;;;;49.03;45.92;;;;;;;;;;5093790;28;20483;-65
2023/02/19 02:18:56;;;;;;;46.17;43.20;;;;;;;;;;5093824;28;20036;-65
2023/02/19 02:21:22;;;;;;;45.72;42.75;;;;;;;;;;5093868;28;20036;-65
2023/02/19 02:24:12;;;;;;;48.60;45.50;;;;;;;;;;5092674;28;20024;-63
2023/02/19 02:26:56;;;;;;;46.83;43.83;;;;;;;;;;5046623;28;20024;-65
2023/02/19 02:29:38;;;;;;;50.30;47.00;;;;;;;;;;5093616;28;20020;-64
2023/02/19 02:32:12;;;;;;;45.95;43.00;;;;;;;;;;5075574;28;20480;-65
2023/02/19 02:34:43;;;;;;;47.85;44.85;;;;;;;;;;5074351;28;20024;-65
2023/02/19 02:37:09;;;;;;;48.08;44.97;;;;;;;;;;5093638;28;20429;-64
2023/02/19 02:39:36;;;;;;;47.90;44.88;;;;;;;;;;5093456;28;20024;-63
2023/02/19 02:45:33;;;;;;;45.55;42.55;;;;;;;;;;5092664;28;20124;-65
2023/02/19 02:47:43;;;;;;;45.42;42.53;;;;;;;;;;5093140;28;20039;-64
2023/02/19 02:50:11;;;;;;;54.60;51.20;;;;;;;;;;5093423;28;20543;-63
2023/02/19 02:55:23;;;;;;;50.72;47.63;;;;;;;;;;5092601;28;20119;-59
2023/02/19 02:57:49;;;;;;;52.33;49.22;;;;;;;;;;5093286;28;20465;-63
2023/02/19 03:00:16;;;;;;;50.10;47.08;;;;;;;;;;5088935;28;20028;-63
2023/02/19 03:02:42;;;;;;;48.40;45.40;;;;;;;;;;5092689;28;20032;-61
2023/02/19 03:08:06;;;;;;;50.63;47.53;;;;;;;;;;5091850;28;20054;-61
2023/02/19 03:10:35;;;;;;;47.75;44.85;;;;;;;;;;5091897;28;20020;-62
2023/02/19 03:21:21;;;;;;;54.67;51.38;;;;;;;;;;5093100;28;20038;-63
2023/02/19 03:26:33;;;;;;;56.83;53.53;;;;;;;;;;5092837;28;20399;-63
2023/02/19 03:31:46;;;;;;;57.00;53.70;;;;;;;;;;5092404;28;20043;-63
2023/02/19 03:34:15;;;;;;;55.70;52.50;;;;;;;;;;5073411;28;20149;-63
2023/02/19 03:36:45;;;;;;;57.17;53.88;;;;;;;;;;5092023;28;20475;-62
2023/02/19 03:39:13;;;;;;;57.05;53.75;;;;;;;;;;5074049;28;20028;-61
2023/02/19 03:41:54;;;;;;;58.00;54.60;;;;;;;;;;5073976;28;20028;-62
2023/02/19 03:44:33;;;;;;;56.45;53.15;;;;;;;;;;5091303;28;20032;-63
2023/02/19 03:47:02;;;;;;;;;;;;;;;;;;5092554;28;20028;-64
2023/02/19 03:49:37;;;;;;;55.15;51.95;;;;;;;;;;5073712;28;19947;-64
2023/02/19 03:52:10;;;;;;;52.97;49.78;;;;;;;;;;5091779;28;20149;-64
2023/02/19 03:54:45;;;;;;;51.42;48.33;;;;;;;;;;5091327;28;20171;-64
2023/02/19 03:57:18;;;;;;;53.80;50.60;;;;;;;;;;5073718;28;20031;-64
2023/02/19 03:59:49;;;;;;;52.40;49.20;;;;;;;;;;5091983;28;20557;-63
2023/02/19 04:02:24;;;;;;;52.28;49.15;;;;;;;;;;5073408;28;20124;-65
2023/02/19 04:04:52;;;;;;;53.58;50.38;;;;;;;;;;5090984;28;20093;-64
2023/02/19 04:07:18;;;;;;;;;;;;;;;;;;5092233;28;20020;-65
2023/02/19 04:09:46;;;;;;;51.92;48.83;;;;;;;;;;5090721;28;19991;-64
2023/02/19 04:12:13;;;;;;;54.45;51.25;;;;;;;;;;5091637;28;20396;-63
2023/02/19 04:14:47;;;;;;;49.08;46.08;;;;;;;;;;5072525;28;20537;-62
2023/02/19 04:17:19;;;;;;;49.30;46.30;;;;;;;;;;5090673;28;20439;-63
2023/02/19 04:19:46;;;;;;;54.33;51.13;;;;;;;;;;5091454;28;20092;-65
2023/02/19 04:22:13;;;;;;;51.38;48.28;;;;;;;;;;5090996;28;20024;-57
2023/02/19 04:24:41;;;;;;;53.80;50.60;;;;;;;;;;5072120;28;20188;-62
2023/02/19 04:27:08;;;;;;;52.58;49.47;;;;;;;;;;5091131;28;20020;-63
2023/02/19 04:29:34;;;;;;;51.40;48.30;;;;;;;;;;5090912;28;20533;-64
2023/02/19 04:32:00;;;;;;;52.33;49.22;;;;;;;;;;5072668;28;20100;-63
2023/02/19 04:34:26;;;;;;;50.85;47.80;;;;;;;;;;5089996;28;20152;-62
2023/02/19 04:36:52;;;;;;;51.08;47.97;;;;;;;;;;5091016;28;20024;-64
2023/02/19 04:39:18;;;;;;;54.33;51.03;;;;;;;;;;5090903;28;20034;-62
2023/02/19 04:41:44;;;;;;;51.33;48.22;;;;;;;;;;5090924;28;20032;-61
2023/02/19 04:44:10;;;;;;;50.45;47.10;;;;;;;;;;5089689;28;20024;-64
2023/02/19 04:46:36;;;;;;;47.63;44.63;;;;;;;;;;5090743;28;20376;-64
2023/02/19 04:49:02;;;;;;;44.08;41.28;;;;;;;;;;5072953;28;20150;-64
2023/02/19 04:51:28;;;;;;;43.97;41.15;;;;;;;;;;5090851;28;20043;-64
2023/02/19 04:53:55;;;;;;;42.88;40.10;;;;;;;;;;5090100;28;20395;-64
2023/02/19 04:56:21;;;;;;;42.55;39.85;;;;;;;;;;5090867;28;20054;-64
2023/02/19 04:58:47;;;;;;;42.33;39.63;;;;;;;;;;5091171;28;20020;-63
2023/02/19 05:01:13;;;;;;;43.83;41.03;;;;;;;;;;5072712;28;20020;-64
2023/02/19 05:03:39;;;;;;;42.05;39.35;;;;;;;;;;5071561;28;20060;-63
2023/02/19 05:06:06;;;;;;;44.00;41.20;;;;;;;;;;5090421;28;20545;-64
2023/02/19 05:08:32;;;;;;;41.83;39.13;;;;;;;;;;5090569;28;20101;-63
2023/02/19 05:10:59;;;;;;;42.90;40.13;;;;;;;;;;5089543;28;20038;-65
2023/02/19 05:13:25;;;;;;;44.40;41.53;;;;;;;;;;5071558;28;20066;-65
2023/02/19 05:16:14;;;;;;;42.53;39.83;;;;;;;;;;5089471;28;20103;-65
2023/02/19 05:18:41;;;;;;;42.67;39.97;;;;;;;;;;5078150;28;20055;-64
2023/02/19 05:21:07;;;;;;;43.28;40.58;;;;;;;;;;5072516;28;20024;-64
2023/02/19 05:23:33;;;;;;;41.80;39.20;;;;;;;;;;5089708;28;20024;-64
2023/02/19 05:25:59;;;;;;;38.67;36.17;;;;;;;;;;5090618;28;20027;-64
2023/02/19 05:28:27;;;;;;;39.30;36.80;;;;;;;;;;5093594;28;20028;-63
2023/02/19 05:30:54;;;;;;;38.13;35.63;;;;;;;;;;5094882;28;20021;-65
2023/02/19 05:33:21;;;;;;;39.05;36.50;;;;;;;;;;5076117;28;20085;-64
2023/02/19 05:35:48;;;;;;;38.63;36.10;;;;;;;;;;5095068;28;20024;-64
2023/02/19 05:38:15;;;;;;;39.90;37.25;;;;;;;;;;5094622;28;20067;-65
2023/02/19 05:40:41;;;;;;;35.55;33.13;;;;;;;;;;5076046;28;20115;-65
2023/02/19 05:43:07;;;;;;;34.45;32.15;;;;;;;;;;5075364;28;20110;-66
2023/02/19 05:45:34;;;;;;;33.85;31.55;;;;;;;;;;5094391;28;20024;-64
2023/02/19 05:48:00;;;;;;;33.95;31.65;;;;;;;;;;5076123;28;20020;-66
2023/02/19 05:50:26;;;;;;;33.88;31.58;;;;;;;;;;5094260;28;20024;-64
2023/02/19 05:52:52;;;;;;;33.42;31.13;;;;;;;;;;5093917;28;20396;-66
2023/02/19 05:55:18;;;;;;;34.55;32.22;;;;;;;;;;5093753;28;20079;-66
2023/02/19 05:57:45;;;;;;;34.10;31.80;;;;;;;;;;5094048;28;20023;-64
2023/02/19 06:00:12;;;;;;;33.03;30.73;;;;;;;;;;5075949;28;20110;-65
2023/02/19 06:02:38;;;;;;;31.88;29.65;;;;;;;;;;5075539;28;20062;-65
2023/02/19 06:05:05;;;;;;;31.83;29.63;;;;;;;;;;5079513;22;20087;-61
2023/02/19 06:07:38;;;;;;;33.28;30.98;;;;;;;;;;5047276;28;20033;-61
2023/02/19 06:10:05;;;;;;;32.95;30.65;;;;;;;;;;5048513;28;20090;-62
2023/02/19 06:12:31;;;;;;;31.30;29.10;;;;;;;;;;5033679;28;20501;-62
2023/02/19 06:14:57;;;;;;;30.38;28.17;;;;;;;;;;5034125;28;20100;-63
2023/02/19 06:17:23;;;;;;;29.83;27.67;;;;;;;;;;5017198;28;20554;-63
2023/02/19 06:19:49;;;;;;;31.40;28.90;;;;;;;;;;5041640;28;20030;-63
2023/02/19 06:22:15;;;;;;;30.48;28.02;;;;;;;;;;5034804;28;20454;-62
2023/02/19 06:24:42;;;;;;;28.25;26.15;;;;;;;;;;5041361;28;20541;-62
2023/02/19 06:27:08;;;;;;;28.73;26.50;;;;;;;;;;5035441;28;20025;-63
2023/02/19 06:29:37;;;;;;;27.63;25.52;;;;;;;;;;5035059;28;20032;-63
2023/02/19 06:32:03;;;;;;;26.27;24.27;;;;;;;;;;5017238;28;20029;-61
2023/02/19 06:34:29;;;;;;;26.65;24.65;;;;;;;;;;5024860;28;20034;-62
2023/02/19 06:36:55;;;;;;;26.80;24.80;;;;;;;;;;5035014;28;20080;-61
2023/02/19 06:39:21;;;;;;;26.92;24.92;;;;;;;;;;5034449;28;20025;-61
2023/02/19 06:41:47;;;;;;;36.28;26.30;;;;;;;;;;5034494;28;20076;-62
2023/02/19 06:44:13;;;;;;;29.08;26.92;;;;;;;;;;5016146;28;20191;-59
2023/02/19 06:46:39;;;;;;;31.23;29.02;;;;;;;;;;5034952;28;20094;-62
2023/02/19 06:49:05;;;;;;;31.40;29.20;;;;;;;;;;5034781;28;20014;-63
2023/02/19 06:51:31;;;;;;;31.90;29.70;;;;;;;;;;5034749;28;20053;-60
2023/02/19 06:53:58;;;;;;;29.45;27.35;;;;;;;;;;5016128;28;20517;-59
2023/02/19 06:56:26;;;;;;;29.38;27.27;;;;;;;;;;5016732;28;20489;-62
2023/02/19 06:58:54;;;;;;;28.70;26.55;;;;;;;;;;5034345;28;20029;-61
2023/02/19 07:01:20;;;;;;;28.58;26.48;;;;;;;;;;5034257;28;20056;-61
2023/02/19 07:03:46;;;;;;;28.58;26.48;;;;;;;;;;5033546;28;20030;-61
2023/02/19 07:06:12;;;;;;;28.45;26.35;;;;;;;;;;5034819;28;20474;-62
2023/02/19 07:08:38;;;;;;;28.00;25.70;;;;;;;;;;5034693;28;20029;-61
2023/02/19 07:11:04;;;;;;;27.38;25.38;;;;;;;;;;5034533;28;20075;-61
2023/02/19 07:13:30;;;;;;;28.33;26.13;;;;;;;;;;5015900;28;20033;-62
2023/02/19 07:16:00;;;;;;;28.35;26.15;;;;;;;;;;5034199;28;20026;-63
2023/02/19 07:18:26;;;;;;;26.65;24.65;;;;;;;;;;5031710;28;20159;-62
2023/02/19 07:20:52;;;;;;;27.88;25.77;;;;;;;;;;5033971;28;20052;-62
2023/02/19 07:23:18;;;;;;;26.33;24.33;;;;;;;;;;5015670;28;20524;-61
2023/02/19 07:25:44;;;;;;;25.33;23.33;;;;;;;;;;5027676;28;20030;-61
2023/02/19 07:28:10;;;;;;;26.88;24.77;;;;;;;;;;5040359;28;20041;-62
2023/02/19 07:30:36;;;;;;;24.30;22.40;;;;;;;;;;5032967;28;20144;-62
2023/02/19 07:33:02;;;;;;;24.58;22.58;;;;;;;;;;5041208;28;20411;-60
2023/02/19 07:35:28;;;;;;;24.45;22.45;;;;;;;;;;5033723;28;20031;-61
2023/02/19 07:37:54;;;;;;;24.58;22.58;;;;;;;;;;5033880;28;20026;-61
2023/02/19 07:40:20;;;;;;;24.35;22.35;;;;;;;;;;5033661;28;20021;-63
2023/02/19 07:42:46;;;;;;;25.27;23.02;;;;;;;;;;5037863;28;20042;-62
2023/02/19 07:45:12;;;;;;;23.80;21.90;;;;;;;;;;5014943;28;20053;-63
2023/02/19 07:47:38;;;;;;;23.20;21.30;;;;;;;;;;5033670;28;20018;-62
2023/02/19 07:50:04;;;;;;;23.52;21.63;;;;;;;;;;5033532;28;20048;-62
2023/02/19 07:52:30;;;;;;;24.13;22.13;;;;;;;;;;5015717;28;20025;-63
2023/02/19 07:54:56;;;;;;;24.70;22.70;;;;;;;;;;5032757;28;20028;-62
2023/02/19 07:57:22;;;;;;;25.80;23.70;;;;;;;;;;5033437;28;20510;-63
2023/02/19 07:59:48;;;;;;;26.42;24.42;;;;;;;;;;5033314;28;20022;-62
2023/02/19 08:05:01;;;;;;;28.33;26.23;;;;;;;;;;5032728;28;20472;-64
2023/02/19 08:07:31;;;;;;;29.35;27.25;;;;;;;;;;5033092;28;20025;-62
2023/02/19 08:13:18;;;;;;;29.90;27.70;;;;;;;;;;5033191;28;20070;-63
2023/02/19 08:15:39;;;;;;;28.40;26.30;;;;;;;;;;5033294;28;20056;-63
2023/02/19 08:18:05;;;;;;;29.70;27.55;;;;;;;;;;5032844;28;20029;-63
2023/02/19 08:20:31;;;;;;;29.77;27.58;;;;;;;;;;5032944;28;20472;-63
2023/02/19 08:22:57;;;;;;;29.90;27.70;;;;;;;;;;5032700;28;20025;-59
2023/02/19 08:25:23;;;;;;;28.98;26.88;;;;;;;;;;5032255;28;20026;-64
2023/02/19 08:27:48;;;;;;;28.02;25.92;;;;;;;;;;5032514;28;20163;-63
2023/02/19 08:30:14;;;;;;;27.15;25.05;;;;;;;;;;5032811;28;20021;-63
2023/02/19 08:32:40;;;;;;;26.23;24.23;;;;;;;;;;5015105;28;20397;-63
2023/02/19 08:35:07;;;;;;;25.60;23.60;;;;;;;;;;5032128;28;20026;-63
2023/02/19 08:37:33;;;;;;;24.08;22.08;;;;;;;;;;5032749;28;20067;-63
2023/02/19 08:39:59;;;;;;;24.98;22.98;;;;;;;;;;5032887;28;20101;-63
2023/02/19 08:42:25;;;;;;;24.30;22.30;;;;;;;;;;5032457;28;20110;-62
2023/02/19 08:44:51;;;;;;;24.38;22.38;;;;;;;;;;5031676;28;20053;-63
2023/02/19 08:47:17;;;;;;;25.45;23.35;;;;;;;;;;5032600;28;20025;-62
2023/02/19 08:49:43;;;;;;;24.38;22.38;;;;;;;;;;5014753;28;20024;-68
2023/02/19 08:52:08;;;;;;;24.30;22.30;;;;;;;;;;5032736;28;20250;-63
2023/02/19 08:54:34;;;;;;;23.98;21.98;;;;;;;;;;5014493;28;20017;-63
2023/02/19 08:57:00;;;;;;;24.10;22.10;;;;;;;;;;5015166;28;20075;-63
2023/02/19 08:59:31;;;;;;;24.20;22.20;;;;;;;;;;5032557;28;20025;-64
2023/02/19 09:01:59;;;;;;;24.77;22.77;;;;;;;;;;5031921;28;20075;-64
2023/02/19 09:04:25;;;;;;;25.17;23.13;;;;;;;;;;5031431;28;20063;-64
2023/02/19 09:06:51;;;;;;;24.23;22.23;;;;;;;;;;5032081;28;20021;-63
2023/02/19 09:09:17;;;;;;;24.40;22.40;;;;;;;;;;5014257;28;20021;-65
2023/02/19 09:11:43;;;;;;;24.48;22.48;;;;;;;;;;5031816;28;20662;-63
2023/02/19 09:14:09;;;;;;;24.50;22.50;;;;;;;;;;5031319;28;20028;-63
2023/02/19 09:16:36;;;;;;;24.13;22.13;;;;;;;;;;5032071;28;20481;-63
2023/02/19 09:19:03;;;;;;;23.83;21.83;;;;;;;;;;5032249;28;20026;-65
2023/02/19 09:21:29;;;;;;;24.70;22.70;;;;;;;;;;5014528;28;20021;-61
2023/02/19 09:23:55;;;;;;;24.77;22.77;;;;;;;;;;5031657;28;20030;-63
2023/02/19 09:26:22;;;;;;;24.88;22.88;;;;;;;;;;5014850;28;20048;-64
2023/02/19 09:28:48;;;;;;;24.90;22.90;;;;;;;;;;5032221;28;20017;-65
2023/02/19 09:31:15;;;;;;;24.90;22.90;;;;;;;;;;5039159;28;20515;-64
2023/02/19 09:33:42;;;;;;;24.17;22.17;;;;;;;;;;5047660;28;20021;-64
2023/02/19 09:36:08;;;;;;;22.92;20.95;;;;;;;;;;5033920;28;20021;-64
2023/02/19 09:38:34;;;;;;;23.05;21.05;;;;;;;;;;5052159;28;20033;-64
2023/02/19 09:41:05;;;;;;;22.15;20.25;;;;;;;;;;5050456;28;20047;-63
2023/02/19 09:43:32;;;;;;;22.38;20.48;;;;;;;;;;5051372;28;20041;-64
2023/02/19 09:46:02;;;;;;;22.58;20.67;;;;;;;;;;5052172;28;20092;-64
2023/02/19 09:48:28;;;;;;;22.08;20.17;;;;;;;;;;5051984;28;20021;-64
2023/02/19 09:50:56;;;;;;;21.55;19.65;;;;;;;;;;5052191;28;20044;-64
2023/02/19 09:53:24;;;;;;;20.80;18.90;;;;;;;;;;5051154;28;20037;-65
2023/02/19 09:55:51;;;;;;;21.08;19.17;;;;;;;;;;5034121;28;20021;-63
2023/02/19 09:58:33;;;;;;;19.75;17.95;;;;;;;;;;5051352;28;20035;-64
2023/02/19 10:01:01;;;;;;;19.40;17.60;;;;;;;;;;5051994;28;20070;-63
2023/02/19 10:03:32;;;;;;;20.80;18.85;;;;;;;;;;5050303;28;20036;-62
2023/02/19 10:06:00;;;;;;;19.58;17.77;;;;;;;;;;5051595;28;20100;-65
2023/02/19 10:08:26;;;;;;;19.45;17.65;;;;;;;;;;5052141;28;20508;-65
2023/02/19 10:10:53;;;;;;;20.30;18.40;;;;;;;;;;5051872;28;20026;-65
2023/02/19 10:13:21;;;;;;;20.15;18.35;;;;;;;;;;5051198;28;20509;-65
2023/02/19 10:15:51;;;;;;;20.47;18.57;;;;;;;;;;5036995;28;20037;-64
2023/02/19 10:18:19;;;;;;;20.38;18.50;;;;;;;;;;5049233;28;20025;-65
2023/02/19 10:20:46;;;;;;;20.58;18.67;;;;;;;;;;5017638;28;20466;-64
2023/02/19 10:23:13;;;;;;;20.63;18.73;;;;;;;;;;5034605;28;20030;-63
2023/02/19 10:25:41;;;;;;;20.73;18.83;;;;;;;;;;5035370;28;20022;-65
2023/02/19 10:28:12;;;;;;;20.15;18.35;;;;;;;;;;5035357;28;20477;-65
2023/02/19 10:30:38;;;;;;;20.25;18.45;;;;;;;;;;5035078;28;20112;-65
2023/02/19 10:33:14;;;;;;;20.23;18.42;;;;;;;;;;5016158;28;20120;-65
2023/02/19 10:35:54;;;;;;;20.17;18.38;;;;;;;;;;5034681;28;20120;-65
2023/02/19 10:38:22;;;;;;;20.00;18.20;;;;;;;;;;5034878;28;20030;-68
2023/02/19 10:40:50;;;;;;;19.90;18.10;;;;;;;;;;5016970;28;20025;-64
2023/02/19 10:43:30;;;;;;;19.98;18.17;;;;;;;;;;5032422;28;20378;-65
2023/02/19 10:45:57;;;;;;;20.88;18.98;;;;;;;;;;5035064;28;20036;-64
2023/02/19 10:48:34;;;;;;;21.05;19.15;;;;;;;;;;5034441;28;20536;-63
2023/02/19 10:51:08;;;;;;;21.52;19.63;;;;;;;;;;5016821;28;20025;-65
2023/02/19 10:53:40;;;;;;;21.48;19.58;;;;;;;;;;5016071;28;20080;-64
2023/02/19 10:56:11;;;;;;;21.30;19.40;;;;;;;;;;5034318;28;20462;-64
2023/02/19 10:58:39;;;;;;;21.08;19.17;;;;;;;;;;5034478;28;20029;-65
2023/02/19 11:01:10;;;;;;;20.95;19.05;;;;;;;;;;5034407;28;20017;-62
2023/02/19 11:03:36;;;;;;;20.77;18.88;;;;;;;;;;5033444;28;20040;-65
2023/02/19 11:06:04;;;;;;;20.70;18.80;;;;;;;;;;5034236;28;20029;-65
2023/02/19 11:08:30;;;;;;;20.48;18.63;;;;;;;;;;5016499;28;20025;-65
2023/02/19 11:10:56;;;;;;;19.83;18.02;;;;;;;;;;5034234;28;20022;-66
2023/02/19 11:13:32;;;;;;;19.85;18.05;;;;;;;;;;5033145;28;20032;-65
2023/02/19 11:15:59;;;;;;;20.15;18.35;;;;;;;;;;5034281;28;20434;-64
2023/02/19 11:18:26;;;;;;;19.75;17.95;;;;;;;;;;5033996;28;20033;-65
2023/02/19 11:20:53;;;;;;;19.98;18.17;;;;;;;;;;5033904;28;20121;-64
2023/02/19 11:23:22;;;;;;;20.00;18.10;;;;;;;;;;5033217;28;20035;-66
2023/02/19 11:25:53;;;;;;;18.77;16.98;;;;;;;;;;5034011;28;20014;-64
2023/02/19 11:28:19;;;;;;;19.23;17.42;;;;;;;;;;5017242;28;20036;-64
2023/02/19 11:30:46;;;;;;;18.35;16.55;;;;;;;;;;5016711;28;20018;-64
2023/02/19 11:33:23;;;;;;;18.38;16.58;;;;;;;;;;5015731;28;20030;-65
2023/02/19 11:35:57;;;;;;;17.90;16.10;;;;;;;;;;5034354;28;20036;-64
2023/02/19 11:38:23;;;;;;;17.75;16.02;;;;;;;;;;5034217;28;20057;-65
2023/02/19 11:40:59;;;;;;;17.75;16.00;;;;;;;;;;5033817;28;20478;-65
2023/02/19 11:43:34;;;;;;;16.65;14.95;;;;;;;;;;5032096;28;20076;-65
2023/02/19 11:46:09;;;;;;;16.83;15.13;;;;;;;;;;5034441;28;20390;-63
2023/02/19 11:48:41;;;;;;;17.05;15.32;;;;;;;;;;5034054;28;20022;-64
2023/02/19 11:51:21;;;;;;;16.08;14.38;;;;;;;;;;5016472;28;20117;-64
2023/02/19 11:53:53;;;;;;;15.50;13.80;;;;;;;;;;5015758;28;20095;-65
2023/02/19 11:56:32;;;;;;;15.10;12.55;;;;;;;;;;5033769;28;20048;-64
2023/02/19 11:59:04;;;;;;;14.85;12.30;;;;;;;;;;5033592;28;20029;-66
2023/02/19 12:01:44;;;;;;;14.80;12.38;;;;;;;;;;5033171;28;20033;-66
2023/02/19 12:04:29;;;;;;;15.05;12.80;;;;;;;;;;5043495;22;20601;-64
2023/02/19 12:07:11;;;;;;;14.60;11.55;;;;;;;;;;5050117;28;20594;-65
2023/02/19 12:10:00;;;;;;;14.27;10.75;;;;;;;;;;5051605;28;20423;-65
2023/02/19 12:12:45;;;;;;;14.30;10.57;;;;;;;;;;5045565;28;20025;-65
2023/02/19 12:15:23;;;;;;;14.50;11.10;;;;;;;;;;5050862;28;20470;-68
2023/02/19 12:17:49;;;;;;;14.00;9.82;;;;;;;;;;5051283;28;20104;-66
2023/02/19 12:20:34;;;;;;;14.05;9.95;;;;;;;;;;5050957;28;20516;-67
2023/02/19 12:23:08;;;;;;;13.98;9.80;;;;;;;;;;5050721;28;20024;-65
2023/02/19 12:25:48;;;;;;;14.05;9.93;;;;;;;;;;5051181;28;20100;-66
2023/02/19 12:28:20;;;;;;;14.05;10.00;;;;;;;;;;5051135;28;20021;-66
2023/02/19 12:30:55;;;;;;;13.80;9.20;;;;;;;;;;5050845;28;20068;-64
2023/02/19 12:33:24;;;;;;;13.88;9.57;;;;;;;;;;5050136;28;20434;-65
2023/02/19 12:35:59;;;;;;;14.20;10.30;;;;;;;;;;5050809;28;20191;-66
2023/02/19 12:38:42;;;;;;;13.90;9.55;;;;;;;;;;5049706;28;20366;-65
2023/02/19 12:41:17;;;;;;;13.98;9.77;;;;;;;;;;5051020;28;20025;-66
2023/02/19 12:43:47;;;;;;;14.77;10.70;;;;;;;;;;5048144;28;20029;-65
2023/02/19 12:46:13;;;;;;;13.82;9.40;;;;;;;;;;5050858;28;20104;-65
2023/02/19 12:48:39;;;;;;;13.73;9.07;;;;;;;;;;5050550;28;20038;-64
2023/02/19 12:51:07;;;;;;;13.73;9.10;;;;;;;;;;5050554;28;20104;-64
2023/02/19 12:53:38;;;;;;;13.77;9.30;;;;;;;;;;5050003;28;20047;-61
2023/02/19 12:56:07;;;;;;;13.60;9.10;;;;;;;;;;5050723;28;20040;-64
2023/02/19 12:58:43;;;;;;;13.80;9.35;;;;;;;;;;5050559;28;20446;-64
2023/02/19 13:01:10;;;;;;;13.90;9.77;;;;;;;;;;5050675;28;20073;-64
2023/02/19 13:03:49;;;;;;;13.90;9.75;;;;;;;;;;5049813;28;20033;-64
2023/02/19 13:06:27;;;;;;;13.88;9.55;;;;;;;;;;5037969;28;20041;-64
2023/02/19 13:08:54;;;;;;;14.07;9.88;;;;;;;;;;5046793;28;20106;-61
2023/02/19 13:11:20;;;;;;;13.85;9.63;;;;;;;;;;5050398;28;20025;-63
2023/02/19 13:13:55;;;;;;;14.05;10.15;;;;;;;;;;5049653;28;20413;-63
2023/02/19 13:16:22;;;;;;;14.27;10.70;;;;;;;;;;5048459;28;20397;-65
2023/02/19 13:18:52;;;;;;;14.30;10.82;;;;;;;;;;5039132;28;20021;-64
2023/02/19 13:24:07;;;;;;;14.07;10.23;;;;;;;;;;5041736;28;20183;-65
2023/02/19 13:26:33;;;;;;;14.13;10.25;;;;;;;;;;5037261;28;20025;-63
2023/02/19 13:29:05;;;;;;;14.20;10.45;;;;;;;;;;5041768;28;20120;-65
2023/02/19 13:31:51;;;;;;;14.20;10.45;;;;;;;;;;5046482;28;20021;-64
2023/02/19 13:34:36;;;;;;;14.00;9.90;;;;;;;;;;5049745;28;20105;-64
2023/02/19 13:37:02;;;;;;;17.20;9.30;;;;;;;;;;5050569;28;20113;-63
2023/02/19 13:39:28;;;;;;;14.02;9.10;;;;;;;;;;5050529;28;20103;-65
2023/02/19 13:41:55;;;;;;;13.80;9.20;;;;;;;;;;4691384;28;10000215;-65
2023/02/19 13:44:24;;;;;;;13.90;9.50;;;;;;;;;;5046137;28;20777;-65
2023/02/19 13:46:50;;;;;;;13.82;9.35;;;;;;;;;;5032421;28;20025;-65
2023/02/19 13:49:28;;;;;;;14.07;10.07;;;;;;;;;;5030174;28;20032;-64
2023/02/19 13:52:14;;;;;;;14.43;10.98;;;;;;;;;;5051495;28;20440;-67
2023/02/19 13:54:40;;;;;;;14.10;10.10;;;;;;;;;;5043246;28;20033;-64
2023/02/19 13:57:21;;;;;;;13.90;9.70;;;;;;;;;;5051683;28;20551;-65
2023/02/19 13:59:47;;;;;;;14.00;10.02;;;;;;;;;;5034896;28;20036;-65
2023/02/19 14:02:14;;;;;;;14.05;10.20;;;;;;;;;;5031145;28;20045;-65
2023/02/19 14:04:47;;;;;;;13.90;9.70;;;;;;;;;;5028740;28;20029;-64
2023/02/19 14:07:13;;;;;;;14.00;10.00;;;;;;;;;;5031027;28;20063;-65
2023/02/19 14:09:39;;;;;;;14.07;10.07;;;;;;;;;;5031470;28;20725;-65
2023/02/19 14:12:05;;;;;;;13.68;9.15;;;;;;;;;;5029887;28;20029;-64
2023/02/19 14:14:54;;;;;;;13.80;9.30;;;;;;;;;;5030806;28;20385;-64
2023/02/19 14:17:33;;;;;;;13.75;9.50;;;;;;;;;;5025090;28;20073;-63
2023/02/19 14:20:08;;;;;;;13.90;9.77;;;;;;;;;;5030948;28;20033;-63
2023/02/19 14:25:30;;;;;;;13.90;9.80;;;;;;;;;;5030186;28;20410;-64
2023/02/19 14:27:56;;;;;;;13.90;9.65;;;;;;;;;;5030804;28;20032;-66
2023/02/19 14:30:23;;;;;;;13.80;9.32;;;;;;;;;;5032347;28;20101;-64
2023/02/19 14:32:50;;;;;;;13.95;9.80;;;;;;;;;;4682669;28;10000285;-65
2023/02/19 14:35:20;;;;;;;13.82;9.43;;;;;;;;;;5030035;28;20473;-65
2023/02/19 14:37:46;;;;;;;13.98;9.77;;;;;;;;;;5030635;28;20104;-65
2023/02/19 14:40:17;;;;;;;13.90;9.77;;;;;;;;;;5030683;28;20440;-65
2023/02/19 14:42:43;;;;;;;13.98;10.00;;;;;;;;;;5040127;28;20489;-65
2023/02/19 14:45:10;;;;;;;13.98;9.77;;;;;;;;;;5049710;28;20021;-63
2023/02/19 14:47:36;;;;;;;13.95;10.00;;;;;;;;;;5050374;28;20530;-64
2023/02/19 14:50:05;;;;;;;14.00;10.10;;;;;;;;;;5050431;28;20035;-63
2023/02/19 14:52:31;;;;;;;;;;;;;;;;;;5050567;28;20492;-64
2023/02/19 14:55:08;;;;;;;14.18;10.45;;;;;;;;;;5049176;28;19983;-69
2023/02/19 14:57:44;;;;;;;14.25;10.75;;;;;;;;;;5051815;28;20082;-65
2023/02/19 15:00:23;;;;;;;14.30;10.70;;;;;;;;;;5051532;28;20511;-64
2023/02/19 15:02:50;;;;;;;14.45;11.18;;;;;;;;;;5052404;28;20025;-64
2023/02/19 15:05:17;;;;;;;14.40;11.00;;;;;;;;;;5051830;28;20045;-64